KHOP/HOP METAR and TAF weather

Enter ICAO airport designator
Station Type Date Time Source
KHOP METAR 2020/11/28 19:56 UTC NOAA

KHOP 281956Z AUTO 02003KT 4SM HZ CLR 11/M04 A3020 RMK AO2 SLP230 T01051040


Station Type Date Time Source
KHOP Decoded METAR 2020/11/28 19:56 UTC NOAA

Fort Campbell U. S. Army Airfield, KY, United States (KHOP) 36-40N 087-30W 174M
Nov 28, 2020 - 02:56 PM EST / 2020.11.28 1956 UTC
Wind: from the NNE (020 degrees) at 3 MPH (3 KT):0
Visibility: 4 mile(s):0
Sky conditions: clear
Weather: haze
Temperature: 50.9 F (10.5 C)
Dew Point: 24.8 F (-4.0 C)
Relative Humidity: 35%
Pressure (altimeter): 30.2 in. Hg (1022 hPa)
ob: KHOP 281956Z AUTO 02003KT 4SM HZ CLR 11/M04 A3020 RMK AO2 SLP230 T01051040
cycle: 20

Station Type Date Time Source
KHOP TAF 2020/11/28 16:21 UTC NOAA

TAF TAF KHOP 281600Z 2816/2922 01006KT 9999 SKC QNH3014INS
BECMG 2911/2912 07006KT 9999 BKN220 QNH3013INS
BECMG 2917/2918 04006KT 9999 BKN100 OVC150 QNH3001INS
BECMG 2918/2919 06006KT 9999 BKN060 OVC080 620805 QNH2999INS TX09/2821Z TN02/2909Z

Example: see airport list